sensor_id;sensor_type;location;lat;lon;timestamp;P1;durP1;ratioP1;P2;durP2;ratioP2
35578;SDS011;21687;48.900;9.188;2023-02-11T00:00:12;52.40;;;26.17;;
35578;SDS011;21687;48.900;9.188;2023-02-11T00:02:38;56.40;;;28.07;;
35578;SDS011;21687;48.900;9.188;2023-02-11T00:05:05;48.97;;;27.60;;
35578;SDS011;21687;48.900;9.188;2023-02-11T00:07:31;54.30;;;27.37;;
35578;SDS011;21687;48.900;9.188;2023-02-11T00:09:58;51.63;;;26.37;;
35578;SDS011;21687;48.900;9.188;2023-02-11T00:12:27;49.10;;;26.90;;
35578;SDS011;21687;48.900;9.188;2023-02-11T00:14:53;51.47;;;25.57;;
35578;SDS011;21687;48.900;9.188;2023-02-11T00:17:20;46.47;;;25.07;;
35578;SDS011;21687;48.900;9.188;2023-02-11T00:19:50;43.67;;;24.40;;
35578;SDS011;21687;48.900;9.188;2023-02-11T00:22:17;48.10;;;25.83;;
35578;SDS011;21687;48.900;9.188;2023-02-11T00:24:43;49.00;;;25.10;;
35578;SDS011;21687;48.900;9.188;2023-02-11T00:27:10;47.50;;;26.03;;
35578;SDS011;21687;48.900;9.188;2023-02-11T00:29:37;48.93;;;24.87;;
35578;SDS011;21687;48.900;9.188;2023-02-11T00:32:03;51.50;;;26.87;;
35578;SDS011;21687;48.900;9.188;2023-02-11T00:34:31;49.10;;;26.20;;
35578;SDS011;21687;48.900;9.188;2023-02-11T00:36:57;49.27;;;25.73;;
35578;SDS011;21687;48.900;9.188;2023-02-11T00:39:24;53.03;;;26.20;;
35578;SDS011;21687;48.900;9.188;2023-02-11T00:41:50;48.60;;;26.17;;
35578;SDS011;21687;48.900;9.188;2023-02-11T00:44:16;51.90;;;26.50;;
35578;SDS011;21687;48.900;9.188;2023-02-11T00:46:43;48.00;;;25.70;;
35578;SDS011;21687;48.900;9.188;2023-02-11T00:49:09;49.80;;;25.97;;
35578;SDS011;21687;48.900;9.188;2023-02-11T00:51:35;55.47;;;26.40;;
35578;SDS011;21687;48.900;9.188;2023-02-11T00:54:02;52.73;;;26.83;;
35578;SDS011;21687;48.900;9.188;2023-02-11T00:56:28;51.57;;;26.20;;
35578;SDS011;21687;48.900;9.188;2023-02-11T00:58:54;55.87;;;27.67;;
35578;SDS011;21687;48.900;9.188;2023-02-11T01:01:21;49.97;;;26.13;;
35578;SDS011;21687;48.900;9.188;2023-02-11T01:03:47;53.27;;;28.37;;
35578;SDS011;21687;48.900;9.188;2023-02-11T01:06:13;50.37;;;28.13;;
35578;SDS011;21687;48.900;9.188;2023-02-11T01:08:39;58.97;;;31.93;;
35578;SDS011;21687;48.900;9.188;2023-02-11T01:11:09;54.60;;;27.97;;
35578;SDS011;21687;48.900;9.188;2023-02-11T01:13:38;67.57;;;32.77;;
35578;SDS011;21687;48.900;9.188;2023-02-11T01:16:08;54.10;;;27.03;;
35578;SDS011;21687;48.900;9.188;2023-02-11T01:18:35;53.90;;;27.37;;
35578;SDS011;21687;48.900;9.188;2023-02-11T01:21:01;52.20;;;26.30;;
35578;SDS011;21687;48.900;9.188;2023-02-11T01:23:28;51.13;;;26.10;;
35578;SDS011;21687;48.900;9.188;2023-02-11T01:25:55;50.07;;;25.20;;
35578;SDS011;21687;48.900;9.188;2023-02-11T01:28:22;49.60;;;25.13;;
35578;SDS011;21687;48.900;9.188;2023-02-11T01:30:49;43.80;;;24.93;;
35578;SDS011;21687;48.900;9.188;2023-02-11T01:33:16;47.13;;;24.33;;
35578;SDS011;21687;48.900;9.188;2023-02-11T01:35:42;49.00;;;25.37;;
35578;SDS011;21687;48.900;9.188;2023-02-11T01:38:16;54.90;;;27.60;;
35578;SDS011;21687;48.900;9.188;2023-02-11T01:40:45;45.70;;;25.20;;
35578;SDS011;21687;48.900;9.188;2023-02-11T01:43:16;49.77;;;25.10;;
35578;SDS011;21687;48.900;9.188;2023-02-11T01:48:14;57.33;;;27.10;;
35578;SDS011;21687;48.900;9.188;2023-02-11T01:50:47;50.90;;;27.47;;
35578;SDS011;21687;48.900;9.188;2023-02-11T01:53:17;52.80;;;27.07;;
35578;SDS011;21687;48.900;9.188;2023-02-11T01:56:03;55.53;;;31.90;;
35578;SDS011;21687;48.900;9.188;2023-02-11T01:58:50;53.97;;;30.03;;
35578;SDS011;21687;48.900;9.188;2023-02-11T02:01:18;51.63;;;27.93;;
35578;SDS011;21687;48.900;9.188;2023-02-11T02:03:49;54.50;;;28.40;;
35578;SDS011;21687;48.900;9.188;2023-02-11T02:06:18;53.77;;;27.97;;
35578;SDS011;21687;48.900;9.188;2023-02-11T02:11:21;50.90;;;27.87;;
35578;SDS011;21687;48.900;9.188;2023-02-11T02:13:47;53.77;;;28.37;;
35578;SDS011;21687;48.900;9.188;2023-02-11T02:16:15;50.67;;;26.00;;
35578;SDS011;21687;48.900;9.188;2023-02-11T02:27:35;50.33;;;26.50;;
35578;SDS011;21687;48.900;9.188;2023-02-11T02:38:39;45.70;;;24.00;;
35578;SDS011;21687;48.900;9.188;2023-02-11T02:41:19;47.90;;;24.93;;
35578;SDS011;21687;48.900;9.188;2023-02-11T02:43:49;43.83;;;24.20;;
35578;SDS011;21687;48.900;9.188;2023-02-11T02:46:20;46.70;;;25.33;;
35578;SDS011;21687;48.900;9.188;2023-02-11T02:48:51;50.50;;;25.00;;
35578;SDS011;21687;48.900;9.188;2023-02-11T02:56:54;48.07;;;25.40;;
35578;SDS011;21687;48.900;9.188;2023-02-11T03:02:42;45.50;;;25.20;;
35578;SDS011;21687;48.900;9.188;2023-02-11T03:05:17;46.77;;;25.63;;
35578;SDS011;21687;48.900;9.188;2023-02-11T03:08:16;52.03;;;24.53;;
35578;SDS011;21687;48.900;9.188;2023-02-11T03:10:50;41.53;;;23.27;;
35578;SDS011;21687;48.900;9.188;2023-02-11T03:13:19;42.90;;;24.33;;
35578;SDS011;21687;48.900;9.188;2023-02-11T03:15:51;48.80;;;25.00;;
35578;SDS011;21687;48.900;9.188;2023-02-11T03:18:21;44.10;;;23.03;;
35578;SDS011;21687;48.900;9.188;2023-02-11T03:20:51;46.07;;;24.00;;
35578;SDS011;21687;48.900;9.188;2023-02-11T03:26:17;45.27;;;23.67;;
35578;SDS011;21687;48.900;9.188;2023-02-11T03:31:44;47.60;;;23.57;;
35578;SDS011;21687;48.900;9.188;2023-02-11T03:34:21;46.07;;;24.27;;
35578;SDS011;21687;48.900;9.188;2023-02-11T03:37:09;42.93;;;23.57;;
35578;SDS011;21687;48.900;9.188;2023-02-11T03:39:45;46.03;;;24.70;;
35578;SDS011;21687;48.900;9.188;2023-02-11T03:42:25;45.07;;;23.17;;
35578;SDS011;21687;48.900;9.188;2023-02-11T03:44:58;44.43;;;23.87;;
35578;SDS011;21687;48.900;9.188;2023-02-11T03:47:30;45.83;;;22.93;;
35578;SDS011;21687;48.900;9.188;2023-02-11T03:50:02;41.20;;;22.23;;
35578;SDS011;21687;48.900;9.188;2023-02-11T03:52:31;40.77;;;21.23;;
35578;SDS011;21687;48.900;9.188;2023-02-11T03:55:00;38.80;;;22.20;;
35578;SDS011;21687;48.900;9.188;2023-02-11T03:57:32;43.03;;;21.83;;
35578;SDS011;21687;48.900;9.188;2023-02-11T03:59:58;41.00;;;22.60;;
35578;SDS011;21687;48.900;9.188;2023-02-11T04:02:29;38.40;;;22.40;;
35578;SDS011;21687;48.900;9.188;2023-02-11T04:04:58;39.90;;;20.33;;
35578;SDS011;21687;48.900;9.188;2023-02-11T04:07:25;37.97;;;21.63;;
35578;SDS011;21687;48.900;9.188;2023-02-11T04:09:51;42.07;;;22.37;;
35578;SDS011;21687;48.900;9.188;2023-02-11T04:12:18;38.70;;;20.97;;
35578;SDS011;21687;48.900;9.188;2023-02-11T04:14:44;40.27;;;21.23;;
35578;SDS011;21687;48.900;9.188;2023-02-11T04:17:11;42.17;;;22.73;;
35578;SDS011;21687;48.900;9.188;2023-02-11T04:19:37;36.53;;;19.80;;
35578;SDS011;21687;48.900;9.188;2023-02-11T04:22:04;35.97;;;21.33;;
35578;SDS011;21687;48.900;9.188;2023-02-11T04:24:30;38.23;;;20.33;;
35578;SDS011;21687;48.900;9.188;2023-02-11T04:26:57;38.53;;;20.17;;
35578;SDS011;21687;48.900;9.188;2023-02-11T04:29:23;40.27;;;21.83;;
35578;SDS011;21687;48.900;9.188;2023-02-11T04:31:49;39.43;;;21.43;;
35578;SDS011;21687;48.900;9.188;2023-02-11T04:34:15;37.23;;;20.53;;
35578;SDS011;21687;48.900;9.188;2023-02-11T04:36:42;36.73;;;21.03;;
35578;SDS011;21687;48.900;9.188;2023-02-11T04:39:08;39.70;;;21.57;;
35578;SDS011;21687;48.900;9.188;2023-02-11T04:41:34;42.17;;;22.03;;
35578;SDS011;21687;48.900;9.188;2023-02-11T04:44:00;40.10;;;21.73;;
35578;SDS011;21687;48.900;9.188;2023-02-11T04:46:27;36.93;;;20.43;;
35578;SDS011;21687;48.900;9.188;2023-02-11T04:48:53;41.10;;;21.00;;
35578;SDS011;21687;48.900;9.188;2023-02-11T04:51:20;37.00;;;19.90;;
35578;SDS011;21687;48.900;9.188;2023-02-11T04:53:46;37.30;;;19.80;;
35578;SDS011;21687;48.900;9.188;2023-02-11T04:56:12;39.33;;;20.47;;
35578;SDS011;21687;48.900;9.188;2023-02-11T04:58:38;39.93;;;19.97;;
35578;SDS011;21687;48.900;9.188;2023-02-11T05:01:09;36.50;;;20.13;;
35578;SDS011;21687;48.900;9.188;2023-02-11T05:03:37;36.83;;;20.07;;
35578;SDS011;21687;48.900;9.188;2023-02-11T05:06:04;37.80;;;20.90;;
35578;SDS011;21687;48.900;9.188;2023-02-11T05:08:30;36.17;;;20.43;;
35578;SDS011;21687;48.900;9.188;2023-02-11T05:10:57;36.53;;;21.07;;
35578;SDS011;21687;48.900;9.188;2023-02-11T05:13:26;37.30;;;20.37;;
35578;SDS011;21687;48.900;9.188;2023-02-11T05:15:53;39.27;;;20.57;;
35578;SDS011;21687;48.900;9.188;2023-02-11T05:18:20;36.97;;;19.97;;
35578;SDS011;21687;48.900;9.188;2023-02-11T05:20:46;36.17;;;19.73;;
35578;SDS011;21687;48.900;9.188;2023-02-11T05:23:12;37.63;;;20.70;;
35578;SDS011;21687;48.900;9.188;2023-02-11T05:25:39;38.30;;;20.90;;
35578;SDS011;21687;48.900;9.188;2023-02-11T05:28:05;39.20;;;21.47;;
35578;SDS011;21687;48.900;9.188;2023-02-11T05:30:31;36.50;;;19.97;;
35578;SDS011;21687;48.900;9.188;2023-02-11T05:32:58;36.63;;;20.90;;
35578;SDS011;21687;48.900;9.188;2023-02-11T05:35:24;32.53;;;19.73;;
35578;SDS011;21687;48.900;9.188;2023-02-11T05:37:50;35.93;;;20.53;;
35578;SDS011;21687;48.900;9.188;2023-02-11T05:40:17;34.30;;;19.97;;
35578;SDS011;21687;48.900;9.188;2023-02-11T05:42:43;37.17;;;20.23;;
35578;SDS011;21687;48.900;9.188;2023-02-11T05:45:09;37.47;;;21.03;;
35578;SDS011;21687;48.900;9.188;2023-02-11T05:47:36;37.87;;;20.90;;
35578;SDS011;21687;48.900;9.188;2023-02-11T05:50:02;35.40;;;19.27;;
35578;SDS011;21687;48.900;9.188;2023-02-11T05:52:28;35.87;;;19.27;;
35578;SDS011;21687;48.900;9.188;2023-02-11T05:54:55;33.07;;;19.90;;
35578;SDS011;21687;48.900;9.188;2023-02-11T06:00:43;32.10;;;19.23;;
35578;SDS011;21687;48.900;9.188;2023-02-11T06:03:10;39.53;;;20.33;;
35578;SDS011;21687;48.900;9.188;2023-02-11T06:05:36;33.77;;;19.17;;
35578;SDS011;21687;48.900;9.188;2023-02-11T06:08:02;35.67;;;18.93;;
35578;SDS011;21687;48.900;9.188;2023-02-11T06:10:29;34.10;;;20.10;;
35578;SDS011;21687;48.900;9.188;2023-02-11T06:12:55;34.73;;;19.70;;
35578;SDS011;21687;48.900;9.188;2023-02-11T06:15:21;32.30;;;19.00;;
35578;SDS011;21687;48.900;9.188;2023-02-11T06:17:47;34.33;;;19.00;;
35578;SDS011;21687;48.900;9.188;2023-02-11T06:20:14;34.03;;;19.43;;
35578;SDS011;21687;48.900;9.188;2023-02-11T06:22:40;36.33;;;19.10;;
35578;SDS011;21687;48.900;9.188;2023-02-11T06:25:06;35.10;;;19.30;;
35578;SDS011;21687;48.900;9.188;2023-02-11T06:27:32;37.20;;;20.57;;
35578;SDS011;21687;48.900;9.188;2023-02-11T06:29:58;35.43;;;19.20;;
35578;SDS011;21687;48.900;9.188;2023-02-11T06:32:25;36.70;;;19.50;;
35578;SDS011;21687;48.900;9.188;2023-02-11T06:34:52;35.10;;;20.37;;
35578;SDS011;21687;48.900;9.188;2023-02-11T06:37:18;32.10;;;20.07;;
35578;SDS011;21687;48.900;9.188;2023-02-11T06:39:45;35.10;;;20.13;;
35578;SDS011;21687;48.900;9.188;2023-02-11T06:42:11;29.80;;;19.00;;
35578;SDS011;21687;48.900;9.188;2023-02-11T06:44:37;31.27;;;19.30;;
35578;SDS011;21687;48.900;9.188;2023-02-11T06:47:03;31.43;;;19.47;;
35578;SDS011;21687;48.900;9.188;2023-02-11T06:49:30;34.17;;;19.83;;
35578;SDS011;21687;48.900;9.188;2023-02-11T06:51:56;35.53;;;20.20;;
35578;SDS011;21687;48.900;9.188;2023-02-11T06:54:22;34.80;;;19.87;;
35578;SDS011;21687;48.900;9.188;2023-02-11T06:56:48;34.57;;;19.40;;
35578;SDS011;21687;48.900;9.188;2023-02-11T06:59:17;37.57;;;19.83;;
35578;SDS011;21687;48.900;9.188;2023-02-11T07:01:46;36.97;;;19.67;;
35578;SDS011;21687;48.900;9.188;2023-02-11T07:04:12;35.77;;;20.43;;
35578;SDS011;21687;48.900;9.188;2023-02-11T07:06:39;33.57;;;19.13;;
35578;SDS011;21687;48.900;9.188;2023-02-11T07:09:06;36.10;;;19.83;;
35578;SDS011;21687;48.900;9.188;2023-02-11T07:11:33;34.10;;;19.53;;
35578;SDS011;21687;48.900;9.188;2023-02-11T07:14:00;37.93;;;20.80;;
35578;SDS011;21687;48.900;9.188;2023-02-11T07:16:32;35.03;;;20.03;;
35578;SDS011;21687;48.900;9.188;2023-02-11T07:18:59;35.43;;;19.10;;
35578;SDS011;21687;48.900;9.188;2023-02-11T07:21:25;34.30;;;19.67;;
35578;SDS011;21687;48.900;9.188;2023-02-11T07:23:52;34.63;;;21.17;;
35578;SDS011;21687;48.900;9.188;2023-02-11T07:26:19;35.27;;;20.80;;
35578;SDS011;21687;48.900;9.188;2023-02-11T07:28:50;36.80;;;21.47;;
35578;SDS011;21687;48.900;9.188;2023-02-11T07:31:21;42.90;;;23.17;;
35578;SDS011;21687;48.900;9.188;2023-02-11T07:33:50;41.10;;;23.73;;
35578;SDS011;21687;48.900;9.188;2023-02-11T07:36:18;36.27;;;22.50;;
35578;SDS011;21687;48.900;9.188;2023-02-11T07:38:45;36.03;;;21.17;;
35578;SDS011;21687;48.900;9.188;2023-02-11T07:41:13;34.43;;;19.83;;
35578;SDS011;21687;48.900;9.188;2023-02-11T07:43:41;34.80;;;19.67;;
35578;SDS011;21687;48.900;9.188;2023-02-11T07:46:15;32.97;;;19.07;;
35578;SDS011;21687;48.900;9.188;2023-02-11T07:48:44;34.67;;;19.10;;
35578;SDS011;21687;48.900;9.188;2023-02-11T07:51:12;33.67;;;20.03;;
35578;SDS011;21687;48.900;9.188;2023-02-11T07:53:43;35.27;;;19.57;;
35578;SDS011;21687;48.900;9.188;2023-02-11T07:56:10;31.90;;;18.93;;
35578;SDS011;21687;48.900;9.188;2023-02-11T07:58:38;29.63;;;18.77;;
35578;SDS011;21687;48.900;9.188;2023-02-11T08:01:07;34.23;;;18.77;;
35578;SDS011;21687;48.900;9.188;2023-02-11T08:03:36;30.30;;;17.20;;
35578;SDS011;21687;48.900;9.188;2023-02-11T08:06:04;30.90;;;17.27;;
35578;SDS011;21687;48.900;9.188;2023-02-11T08:08:31;31.13;;;18.40;;
35578;SDS011;21687;48.900;9.188;2023-02-11T08:10:58;33.83;;;20.47;;
35578;SDS011;21687;48.900;9.188;2023-02-11T08:13:29;33.77;;;19.87;;
35578;SDS011;21687;48.900;9.188;2023-02-11T08:15:56;32.10;;;19.40;;
35578;SDS011;21687;48.900;9.188;2023-02-11T08:18:22;29.57;;;18.33;;
35578;SDS011;21687;48.900;9.188;2023-02-11T08:20:48;32.23;;;17.97;;
35578;SDS011;21687;48.900;9.188;2023-02-11T08:23:14;30.87;;;19.50;;
35578;SDS011;21687;48.900;9.188;2023-02-11T08:25:41;31.03;;;18.80;;
35578;SDS011;21687;48.900;9.188;2023-02-11T08:28:07;29.97;;;18.57;;
35578;SDS011;21687;48.900;9.188;2023-02-11T08:30:33;28.90;;;18.57;;
35578;SDS011;21687;48.900;9.188;2023-02-11T08:33:00;25.97;;;17.37;;
35578;SDS011;21687;48.900;9.188;2023-02-11T08:35:26;32.47;;;18.73;;
35578;SDS011;21687;48.900;9.188;2023-02-11T08:37:53;33.07;;;19.87;;
35578;SDS011;21687;48.900;9.188;2023-02-11T08:40:19;32.43;;;19.57;;
35578;SDS011;21687;48.900;9.188;2023-02-11T08:42:45;29.63;;;19.17;;
35578;SDS011;21687;48.900;9.188;2023-02-11T08:45:11;27.53;;;17.70;;
35578;SDS011;21687;48.900;9.188;2023-02-11T08:47:38;28.10;;;17.23;;
35578;SDS011;21687;48.900;9.188;2023-02-11T08:50:05;27.73;;;16.07;;
35578;SDS011;21687;48.900;9.188;2023-02-11T08:52:31;27.27;;;17.93;;
35578;SDS011;21687;48.900;9.188;2023-02-11T08:54:57;32.33;;;18.03;;
35578;SDS011;21687;48.900;9.188;2023-02-11T08:57:24;28.17;;;17.13;;
35578;SDS011;21687;48.900;9.188;2023-02-11T08:59:50;27.43;;;15.67;;
35578;SDS011;21687;48.900;9.188;2023-02-11T09:02:16;26.50;;;16.53;;
35578;SDS011;21687;48.900;9.188;2023-02-11T09:04:42;29.53;;;17.00;;
35578;SDS011;21687;48.900;9.188;2023-02-11T09:07:09;25.87;;;15.20;;
35578;SDS011;21687;48.900;9.188;2023-02-11T09:09:36;27.37;;;16.43;;
35578;SDS011;21687;48.900;9.188;2023-02-11T09:12:02;27.93;;;15.93;;
35578;SDS011;21687;48.900;9.188;2023-02-11T09:14:29;25.13;;;15.23;;
35578;SDS011;21687;48.900;9.188;2023-02-11T09:16:55;27.60;;;16.67;;
35578;SDS011;21687;48.900;9.188;2023-02-11T09:19:22;28.67;;;16.13;;
35578;SDS011;21687;48.900;9.188;2023-02-11T09:21:48;28.10;;;16.47;;
35578;SDS011;21687;48.900;9.188;2023-02-11T09:24:14;29.30;;;17.87;;
35578;SDS011;21687;48.900;9.188;2023-02-11T09:26:41;26.20;;;16.43;;
35578;SDS011;21687;48.900;9.188;2023-02-11T09:29:07;31.13;;;17.70;;
35578;SDS011;21687;48.900;9.188;2023-02-11T09:31:34;28.47;;;16.23;;
35578;SDS011;21687;48.900;9.188;2023-02-11T09:34:02;24.13;;;15.13;;
35578;SDS011;21687;48.900;9.188;2023-02-11T09:36:31;28.83;;;15.37;;
35578;SDS011;21687;48.900;9.188;2023-02-11T09:39:00;28.80;;;16.50;;
35578;SDS011;21687;48.900;9.188;2023-02-11T09:41:38;25.67;;;16.27;;
35578;SDS011;21687;48.900;9.188;2023-02-11T09:44:32;30.07;;;15.83;;
35578;SDS011;21687;48.900;9.188;2023-02-11T09:47:15;26.33;;;15.50;;
35578;SDS011;21687;48.900;9.188;2023-02-11T09:50:13;27.30;;;15.60;;
35578;SDS011;21687;48.900;9.188;2023-02-11T09:52:45;22.50;;;13.70;;
35578;SDS011;21687;48.900;9.188;2023-02-11T09:55:23;20.07;;;12.67;;
35578;SDS011;21687;48.900;9.188;2023-02-11T09:58:02;25.43;;;13.83;;
35578;SDS011;21687;48.900;9.188;2023-02-11T10:09:05;18.97;;;12.13;;
35578;SDS011;21687;48.900;9.188;2023-02-11T10:23:47;16.97;;;9.70;;
35578;SDS011;21687;48.900;9.188;2023-02-11T10:25:56;15.37;;;9.50;;
35578;SDS011;21687;48.900;9.188;2023-02-11T10:28:26;18.73;;;10.43;;
35578;SDS011;21687;48.900;9.188;2023-02-11T10:30:56;16.77;;;9.47;;
35578;SDS011;21687;48.900;9.188;2023-02-11T10:36:01;12.87;;;8.47;;
35578;SDS011;21687;48.900;9.188;2023-02-11T10:38:28;13.90;;;9.03;;
35578;SDS011;21687;48.900;9.188;2023-02-11T10:40:57;14.37;;;7.80;;
35578;SDS011;21687;48.900;9.188;2023-02-11T10:43:25;12.70;;;8.23;;
35578;SDS011;21687;48.900;9.188;2023-02-11T10:45:54;13.37;;;8.07;;
35578;SDS011;21687;48.900;9.188;2023-02-11T10:48:40;13.80;;;8.87;;
35578;SDS011;21687;48.900;9.188;2023-02-11T10:53:40;12.97;;;8.03;;
35578;SDS011;21687;48.900;9.188;2023-02-11T10:56:06;12.67;;;8.27;;
35578;SDS011;21687;48.900;9.188;2023-02-11T10:58:45;13.80;;;7.37;;
35578;SDS011;21687;48.900;9.188;2023-02-11T11:01:19;14.93;;;8.40;;
35578;SDS011;21687;48.900;9.188;2023-02-11T11:03:47;13.43;;;7.87;;
35578;SDS011;21687;48.900;9.188;2023-02-11T11:06:15;14.33;;;8.10;;
35578;SDS011;21687;48.900;9.188;2023-02-11T11:08:52;14.80;;;8.07;;
35578;SDS011;21687;48.900;9.188;2023-02-11T11:11:19;14.43;;;9.10;;
35578;SDS011;21687;48.900;9.188;2023-02-11T11:21:41;13.07;;;7.87;;
35578;SDS011;21687;48.900;9.188;2023-02-11T11:24:14;14.47;;;8.77;;
35578;SDS011;21687;48.900;9.188;2023-02-11T11:26:59;16.33;;;8.93;;
35578;SDS011;21687;48.900;9.188;2023-02-11T11:32:04;14.00;;;8.50;;
35578;SDS011;21687;48.900;9.188;2023-02-11T11:34:40;19.40;;;8.53;;
35578;SDS011;21687;48.900;9.188;2023-02-11T11:39:39;15.50;;;8.40;;
35578;SDS011;21687;48.900;9.188;2023-02-11T11:42:21;13.40;;;8.73;;
35578;SDS011;21687;48.900;9.188;2023-02-11T11:45:00;12.43;;;8.30;;
35578;SDS011;21687;48.900;9.188;2023-02-11T11:47:43;13.73;;;7.90;;
35578;SDS011;21687;48.900;9.188;2023-02-11T11:50:42;13.30;;;8.07;;
35578;SDS011;21687;48.900;9.188;2023-02-11T11:53:27;13.67;;;8.23;;
35578;SDS011;21687;48.900;9.188;2023-02-11T11:56:04;11.27;;;7.33;;
35578;SDS011;21687;48.900;9.188;2023-02-11T11:58:37;14.80;;;7.90;;
35578;SDS011;21687;48.900;9.188;2023-02-11T12:04:01;10.97;;;7.57;;
35578;SDS011;21687;48.900;9.188;2023-02-11T12:06:52;11.00;;;7.23;;
35578;SDS011;21687;48.900;9.188;2023-02-11T12:26:28;17.27;;;10.97;;
35578;SDS011;21687;48.900;9.188;2023-02-11T12:40:43;15.93;;;10.60;;
35578;SDS011;21687;48.900;9.188;2023-02-11T12:43:29;17.43;;;11.03;;
35578;SDS011;21687;48.900;9.188;2023-02-11T12:46:46;22.33;;;10.73;;
35578;SDS011;21687;48.900;9.188;2023-02-11T12:49:03;19.87;;;10.43;;
35578;SDS011;21687;48.900;9.188;2023-02-11T12:54:27;20.37;;;10.87;;
35578;SDS011;21687;48.900;9.188;2023-02-11T12:57:31;18.50;;;9.90;;
35578;SDS011;21687;48.900;9.188;2023-02-11T13:00:07;19.03;;;9.83;;
35578;SDS011;21687;48.900;9.188;2023-02-11T13:02:50;18.10;;;11.40;;
35578;SDS011;21687;48.900;9.188;2023-02-11T13:05:24;16.80;;;10.90;;
35578;SDS011;21687;48.900;9.188;2023-02-11T13:08:07;20.93;;;12.90;;
35578;SDS011;21687;48.900;9.188;2023-02-11T13:10:40;17.80;;;11.60;;
35578;SDS011;21687;48.900;9.188;2023-02-11T13:13:45;24.30;;;12.73;;
35578;SDS011;21687;48.900;9.188;2023-02-11T13:24:45;21.47;;;13.27;;
35578;SDS011;21687;48.900;9.188;2023-02-11T13:35:27;19.10;;;11.70;;
35578;SDS011;21687;48.900;9.188;2023-02-11T13:37:58;18.93;;;11.27;;
35578;SDS011;21687;48.900;9.188;2023-02-11T13:40:27;22.00;;;11.83;;
35578;SDS011;21687;48.900;9.188;2023-02-11T13:43:03;19.67;;;11.60;;
35578;SDS011;21687;48.900;9.188;2023-02-11T13:45:36;20.77;;;12.23;;
35578;SDS011;21687;48.900;9.188;2023-02-11T13:50:51;20.90;;;11.73;;
35578;SDS011;21687;48.900;9.188;2023-02-11T13:53:20;19.40;;;12.10;;
35578;SDS011;21687;48.900;9.188;2023-02-11T13:55:48;20.43;;;11.73;;
35578;SDS011;21687;48.900;9.188;2023-02-11T13:58:18;21.00;;;11.63;;
35578;SDS011;21687;48.900;9.188;2023-02-11T14:00:50;18.00;;;11.53;;
35578;SDS011;21687;48.900;9.188;2023-02-11T14:03:21;17.37;;;10.90;;
35578;SDS011;21687;48.900;9.188;2023-02-11T14:09:38;17.00;;;10.40;;
35578;SDS011;21687;48.900;9.188;2023-02-11T14:12:15;17.10;;;11.07;;
35578;SDS011;21687;48.900;9.188;2023-02-11T14:15:00;18.23;;;10.83;;
35578;SDS011;21687;48.900;9.188;2023-02-11T14:17:30;18.80;;;11.20;;
35578;SDS011;21687;48.900;9.188;2023-02-11T14:19:58;17.33;;;11.00;;
35578;SDS011;21687;48.900;9.188;2023-02-11T14:22:49;16.83;;;10.90;;
35578;SDS011;21687;48.900;9.188;2023-02-11T14:25:19;17.83;;;10.23;;
35578;SDS011;21687;48.900;9.188;2023-02-11T14:27:50;15.80;;;10.77;;
35578;SDS011;21687;48.900;9.188;2023-02-11T14:41:37;15.30;;;9.77;;
35578;SDS011;21687;48.900;9.188;2023-02-11T14:44:20;15.47;;;9.73;;
35578;SDS011;21687;48.900;9.188;2023-02-11T14:46:49;16.67;;;10.77;;
35578;SDS011;21687;48.900;9.188;2023-02-11T14:49:25;15.07;;;10.40;;
35578;SDS011;21687;48.900;9.188;2023-02-11T14:51:56;15.63;;;10.60;;
35578;SDS011;21687;48.900;9.188;2023-02-11T14:54:47;17.37;;;11.10;;
35578;SDS011;21687;48.900;9.188;2023-02-11T14:57:16;24.13;;;12.13;;
35578;SDS011;21687;48.900;9.188;2023-02-11T15:00:00;15.60;;;11.00;;
35578;SDS011;21687;48.900;9.188;2023-02-11T15:02:43;16.60;;;10.60;;
35578;SDS011;21687;48.900;9.188;2023-02-11T15:05:23;14.40;;;10.20;;
35578;SDS011;21687;48.900;9.188;2023-02-11T15:07:58;16.73;;;10.53;;
35578;SDS011;21687;48.900;9.188;2023-02-11T15:13:01;16.23;;;10.57;;
35578;SDS011;21687;48.900;9.188;2023-02-11T15:15:28;14.70;;;10.30;;
35578;SDS011;21687;48.900;9.188;2023-02-11T15:17:57;18.83;;;9.60;;
35578;SDS011;21687;48.900;9.188;2023-02-11T15:20:27;13.63;;;9.80;;
35578;SDS011;21687;48.900;9.188;2023-02-11T15:22:57;16.57;;;10.63;;
35578;SDS011;21687;48.900;9.188;2023-02-11T15:25:26;17.13;;;11.10;;
35578;SDS011;21687;48.900;9.188;2023-02-11T15:27:56;15.33;;;10.67;;
35578;SDS011;21687;48.900;9.188;2023-02-11T15:32:55;16.83;;;10.90;;
35578;SDS011;21687;48.900;9.188;2023-02-11T15:35:28;15.33;;;10.27;;
35578;SDS011;21687;48.900;9.188;2023-02-11T15:37:57;18.97;;;11.47;;
35578;SDS011;21687;48.900;9.188;2023-02-11T15:40:28;17.57;;;11.40;;
35578;SDS011;21687;48.900;9.188;2023-02-11T15:47:56;18.07;;;11.93;;
35578;SDS011;21687;48.900;9.188;2023-02-11T15:50:30;20.23;;;11.53;;
35578;SDS011;21687;48.900;9.188;2023-02-11T15:53:17;21.30;;;12.97;;
35578;SDS011;21687;48.900;9.188;2023-02-11T15:55:48;19.90;;;12.90;;
35578;SDS011;21687;48.900;9.188;2023-02-11T15:58:16;20.40;;;13.50;;
35578;SDS011;21687;48.900;9.188;2023-02-11T16:00:46;21.93;;;14.17;;
35578;SDS011;21687;48.900;9.188;2023-02-11T16:03:25;21.67;;;13.70;;
35578;SDS011;21687;48.900;9.188;2023-02-11T16:05:56;20.27;;;13.10;;
35578;SDS011;21687;48.900;9.188;2023-02-11T16:08:40;24.80;;;13.77;;
35578;SDS011;21687;48.900;9.188;2023-02-11T16:13:55;27.83;;;16.03;;
35578;SDS011;21687;48.900;9.188;2023-02-11T16:16:34;23.60;;;14.97;;
35578;SDS011;21687;48.900;9.188;2023-02-11T16:19:00;24.73;;;15.60;;
35578;SDS011;21687;48.900;9.188;2023-02-11T16:21:35;19.77;;;13.40;;
35578;SDS011;21687;48.900;9.188;2023-02-11T16:24:19;22.03;;;14.40;;
35578;SDS011;21687;48.900;9.188;2023-02-11T16:27:02;22.63;;;14.30;;
35578;SDS011;21687;48.900;9.188;2023-02-11T16:29:31;21.43;;;14.50;;
35578;SDS011;21687;48.900;9.188;2023-02-11T16:32:07;22.70;;;14.00;;
35578;SDS011;21687;48.900;9.188;2023-02-11T16:34:39;22.70;;;14.57;;
35578;SDS011;21687;48.900;9.188;2023-02-11T16:37:06;25.50;;;14.77;;
35578;SDS011;21687;48.900;9.188;2023-02-11T16:39:32;22.60;;;14.83;;
35578;SDS011;21687;48.900;9.188;2023-02-11T16:41:59;23.73;;;13.83;;
35578;SDS011;21687;48.900;9.188;2023-02-11T16:44:25;22.40;;;14.40;;
35578;SDS011;21687;48.900;9.188;2023-02-11T16:46:52;22.40;;;14.50;;
35578;SDS011;21687;48.900;9.188;2023-02-11T16:51:51;23.27;;;14.47;;
35578;SDS011;21687;48.900;9.188;2023-02-11T16:54:21;23.80;;;15.23;;
35578;SDS011;21687;48.900;9.188;2023-02-11T16:56:48;20.90;;;14.63;;
35578;SDS011;21687;48.900;9.188;2023-02-11T16:59:14;23.10;;;15.00;;
35578;SDS011;21687;48.900;9.188;2023-02-11T17:01:41;24.90;;;14.60;;
35578;SDS011;21687;48.900;9.188;2023-02-11T17:04:18;23.70;;;14.13;;
35578;SDS011;21687;48.900;9.188;2023-02-11T17:06:53;23.07;;;14.20;;
35578;SDS011;21687;48.900;9.188;2023-02-11T17:09:21;24.97;;;14.90;;
35578;SDS011;21687;48.900;9.188;2023-02-11T17:11:48;22.60;;;14.80;;
35578;SDS011;21687;48.900;9.188;2023-02-11T17:14:15;20.03;;;14.17;;
35578;SDS011;21687;48.900;9.188;2023-02-11T17:16:42;20.63;;;14.07;;
35578;SDS011;21687;48.900;9.188;2023-02-11T17:19:12;24.30;;;15.20;;
35578;SDS011;21687;48.900;9.188;2023-02-11T17:21:41;25.07;;;15.90;;
35578;SDS011;21687;48.900;9.188;2023-02-11T17:24:08;22.83;;;15.17;;